createdAt,value
2023-01-17T00:00:11.558Z,100
2023-01-17T00:01:11.503Z,100
2023-01-17T00:02:11.510Z,100
2023-01-17T00:03:11.505Z,100
2023-01-17T00:04:11.529Z,100
2023-01-17T00:05:11.505Z,100
2023-01-17T00:06:11.565Z,100
2023-01-17T00:07:11.649Z,100
2023-01-17T00:08:11.505Z,100
2023-01-17T00:09:11.501Z,100
2023-01-17T00:10:11.513Z,100
2023-01-17T00:11:11.749Z,100
2023-01-17T00:12:11.498Z,100
2023-01-17T00:13:11.494Z,100
2023-01-17T00:14:11.576Z,100
2023-01-17T00:15:11.772Z,100
2023-01-17T00:16:11.592Z,100
2023-01-17T00:17:11.514Z,100
2023-01-17T00:18:11.567Z,100
2023-01-17T00:19:11.500Z,100
2023-01-17T00:20:11.520Z,100
2023-01-17T00:21:11.513Z,100
2023-01-17T00:22:11.501Z,100
2023-01-17T00:23:11.505Z,100
2023-01-17T00:24:11.505Z,100
2023-01-17T00:25:11.504Z,100
2023-01-17T00:26:11.505Z,100
2023-01-17T00:27:11.503Z,100
2023-01-17T00:28:11.502Z,100
2023-01-17T00:29:11.505Z,100
2023-01-17T00:30:11.529Z,100
2023-01-17T00:31:11.578Z,100
2023-01-17T00:32:11.524Z,100
2023-01-17T00:33:11.518Z,100
2023-01-17T00:34:11.509Z,100
2023-01-17T00:35:11.522Z,100
2023-01-17T00:36:11.501Z,100
2023-01-17T00:37:11.502Z,100
2023-01-17T00:38:11.515Z,100
2023-01-17T00:39:11.498Z,100
2023-01-17T00:40:11.526Z,100
2023-01-17T00:41:11.507Z,100
2023-01-17T00:42:11.541Z,100
2023-01-17T00:43:11.542Z,100
2023-01-17T00:44:11.500Z,100
2023-01-17T00:45:11.499Z,100
2023-01-17T00:46:11.586Z,100
2023-01-17T00:47:11.584Z,100
2023-01-17T00:48:11.535Z,100
2023-01-17T00:49:11.524Z,100
2023-01-17T00:50:11.535Z,100
2023-01-17T00:51:11.583Z,100
2023-01-17T00:52:11.572Z,100
2023-01-17T00:53:11.683Z,100
2023-01-17T00:54:11.549Z,100
2023-01-17T00:55:11.698Z,100
2023-01-17T00:56:11.673Z,100
2023-01-17T00:57:11.604Z,100
2023-01-17T00:58:11.558Z,100
2023-01-17T00:59:11.616Z,100
2023-01-17T01:00:11.611Z,100
2023-01-17T01:01:11.801Z,100
2023-01-17T01:02:11.874Z,100
2023-01-17T01:03:11.606Z,100
2023-01-17T01:04:11.665Z,100
2023-01-17T01:05:11.742Z,100
2023-01-17T01:06:11.824Z,100
2023-01-17T01:07:11.648Z,100
2023-01-17T01:08:11.654Z,100
2023-01-17T01:09:11.727Z,100
2023-01-17T01:10:11.530Z,100
2023-01-17T01:11:11.788Z,100
2023-01-17T01:12:11.883Z,100
2023-01-17T01:13:11.859Z,100
2023-01-17T01:14:11.744Z,100
2023-01-17T01:15:11.725Z,100
2023-01-17T01:16:11.857Z,100
2023-01-17T01:17:11.517Z,100
2023-01-17T01:18:11.778Z,100
2023-01-17T01:19:11.632Z,100
2023-01-17T01:20:11.783Z,100
2023-01-17T01:21:11.846Z,100
2023-01-17T01:22:11.519Z,100
2023-01-17T01:23:11.532Z,100
2023-01-17T01:24:11.807Z,100
2023-01-17T01:25:11.524Z,100
2023-01-17T01:26:11.961Z,100
2023-01-17T01:27:11.612Z,100
2023-01-17T01:28:11.934Z,100
2023-01-17T01:29:11.684Z,100
2023-01-17T01:30:11.856Z,100
2023-01-17T01:31:11.663Z,100
2023-01-17T01:32:11.514Z,100
2023-01-17T01:33:11.713Z,100
2023-01-17T01:34:11.506Z,100
2023-01-17T01:35:11.690Z,100
2023-01-17T01:36:11.525Z,100
2023-01-17T01:37:11.517Z,100
2023-01-17T01:38:11.505Z,100
2023-01-17T01:39:11.516Z,100
2023-01-17T01:40:11.500Z,100
2023-01-17T01:41:11.511Z,100
2023-01-17T01:42:11.504Z,100
2023-01-17T01:43:11.514Z,100
2023-01-17T01:44:11.509Z,100
2023-01-17T01:45:11.509Z,100
2023-01-17T01:46:11.507Z,100
2023-01-17T01:47:11.513Z,100
2023-01-17T01:48:11.517Z,100
2023-01-17T01:49:11.504Z,100
2023-01-17T01:50:11.502Z,100
2023-01-17T01:51:11.502Z,100
2023-01-17T01:52:11.510Z,100
2023-01-17T01:53:11.513Z,100
2023-01-17T01:54:11.514Z,100
2023-01-17T01:55:11.514Z,100
2023-01-17T01:56:11.513Z,100
2023-01-17T01:57:11.502Z,100
2023-01-17T01:58:11.510Z,100
2023-01-17T01:59:11.505Z,100
2023-01-17T02:00:11.504Z,100
2023-01-17T02:01:11.582Z,100
2023-01-17T02:02:11.500Z,100
2023-01-17T02:03:11.508Z,100
2023-01-17T02:04:11.584Z,100
2023-01-17T02:05:11.512Z,100
2023-01-17T02:06:11.510Z,100
2023-01-17T02:07:11.517Z,100
2023-01-17T02:08:11.515Z,100
2023-01-17T02:09:11.505Z,100
2023-01-17T02:10:11.547Z,100
2023-01-17T02:11:11.520Z,100
2023-01-17T02:12:11.503Z,100
2023-01-17T02:13:11.520Z,100
2023-01-17T02:14:11.515Z,100
2023-01-17T02:15:11.521Z,100
2023-01-17T02:16:11.518Z,100
2023-01-17T02:17:11.502Z,100
2023-01-17T02:18:11.510Z,100
2023-01-17T02:19:11.519Z,100
2023-01-17T02:20:11.502Z,100
2023-01-17T02:21:11.515Z,100
2023-01-17T02:22:11.567Z,100
2023-01-17T02:23:11.540Z,100
2023-01-17T02:24:11.514Z,100
2023-01-17T02:25:11.537Z,100
2023-01-17T02:26:11.503Z,100
2023-01-17T02:27:11.524Z,100
2023-01-17T02:28:11.512Z,100
2023-01-17T02:29:11.527Z,100
2023-01-17T02:30:11.503Z,100
2023-01-17T02:31:11.505Z,100
2023-01-17T02:32:11.516Z,100
2023-01-17T02:33:11.516Z,100
2023-01-17T02:34:11.499Z,100
2023-01-17T02:35:11.519Z,100
2023-01-17T02:36:11.729Z,100
2023-01-17T02:37:12.105Z,100
2023-01-17T02:38:12.456Z,100
2023-01-17T02:39:12.550Z,100
2023-01-17T02:40:10.997Z,100
2023-01-17T02:41:11.377Z,100
2023-01-17T02:42:11.549Z,100
2023-01-17T02:43:11.826Z,100
2023-01-17T02:44:11.735Z,100
2023-01-17T02:45:11.974Z,100
2023-01-17T02:46:12.253Z,100
2023-01-17T02:47:11.512Z,100
2023-01-17T02:48:11.626Z,100
2023-01-17T02:49:11.556Z,100
2023-01-17T02:50:11.543Z,100
2023-01-17T02:51:11.568Z,100
2023-01-17T02:52:11.563Z,100
2023-01-17T02:53:11.629Z,100
2023-01-17T02:54:11.601Z,100
2023-01-17T02:55:11.530Z,100
2023-01-17T02:56:11.562Z,100
2023-01-17T02:57:11.632Z,100
2023-01-17T02:58:11.755Z,100
2023-01-17T02:59:11.776Z,100
2023-01-17T03:00:11.668Z,100
2023-01-17T03:01:11.812Z,100
2023-01-17T03:02:11.852Z,100
2023-01-17T03:03:11.871Z,100
2023-01-17T03:04:11.773Z,100
2023-01-17T03:05:11.867Z,100
2023-01-17T03:06:12.164Z,100
2023-01-17T03:07:12.088Z,100
2023-01-17T03:08:11.893Z,100
2023-01-17T03:09:12.118Z,100
2023-01-17T03:10:11.816Z,100
2023-01-17T03:11:11.853Z,100
2023-01-17T03:12:11.756Z,100
2023-01-17T03:13:11.956Z,100
2023-01-17T03:14:11.865Z,100
2023-01-17T03:15:11.742Z,100
2023-01-17T03:16:14.228Z,100
2023-01-17T03:17:12.126Z,100
2023-01-17T03:18:11.871Z,100
2023-01-17T03:19:11.717Z,100
2023-01-17T03:20:11.997Z,100
2023-01-17T03:21:12.277Z,100
2023-01-17T03:22:11.898Z,100
2023-01-17T03:23:11.798Z,100
2023-01-17T03:24:11.538Z,100
2023-01-17T03:25:11.527Z,100
2023-01-17T03:26:11.507Z,100
2023-01-17T03:27:11.518Z,100
2023-01-17T03:28:11.506Z,100
2023-01-17T03:29:11.510Z,100
2023-01-17T03:30:11.550Z,100
2023-01-17T03:31:11.525Z,100
2023-01-17T03:32:11.508Z,100
2023-01-17T03:33:11.529Z,100
2023-01-17T03:34:11.540Z,100
2023-01-17T03:35:11.517Z,100
2023-01-17T03:36:11.528Z,100
2023-01-17T03:37:11.498Z,100
2023-01-17T03:38:11.540Z,100
2023-01-17T03:39:11.636Z,100
2023-01-17T03:40:11.510Z,100
2023-01-17T03:41:11.515Z,100
2023-01-17T03:42:11.525Z,100
2023-01-17T03:43:11.729Z,100
2023-01-17T03:44:11.527Z,100
2023-01-17T03:45:11.516Z,100
2023-01-17T03:46:11.563Z,100
2023-01-17T03:47:11.786Z,100
2023-01-17T03:48:11.511Z,100
2023-01-17T03:49:11.524Z,100
2023-01-17T03:50:11.504Z,100
2023-01-17T03:51:11.525Z,100
2023-01-17T03:52:11.523Z,100
2023-01-17T03:53:11.517Z,100
2023-01-17T03:54:11.519Z,100
2023-01-17T03:55:11.516Z,100
2023-01-17T03:56:11.539Z,100
2023-01-17T03:57:11.510Z,100
2023-01-17T03:58:11.508Z,100
2023-01-17T03:59:14.521Z,100
2023-01-17T04:00:11.529Z,100
2023-01-17T04:01:11.594Z,100
2023-01-17T04:02:11.613Z,100
2023-01-17T04:03:11.522Z,100
2023-01-17T04:04:11.749Z,100
2023-01-17T04:05:11.521Z,100
2023-01-17T04:06:11.503Z,100
2023-01-17T04:07:11.526Z,100
2023-01-17T04:08:11.521Z,100
2023-01-17T04:09:11.500Z,100
2023-01-17T04:10:11.516Z,100
2023-01-17T04:11:11.507Z,100
2023-01-17T04:12:11.513Z,100
2023-01-17T04:13:11.502Z,100
2023-01-17T04:14:11.507Z,100
2023-01-17T04:15:11.538Z,100
2023-01-17T04:16:11.585Z,100
2023-01-17T04:17:11.512Z,100
2023-01-17T04:18:11.607Z,100
2023-01-17T04:19:11.509Z,100
2023-01-17T04:20:11.520Z,100
2023-01-17T04:21:11.525Z,100
2023-01-17T04:22:11.507Z,100
2023-01-17T04:23:11.512Z,100
2023-01-17T04:24:11.522Z,100
2023-01-17T04:25:11.514Z,100
2023-01-17T04:26:11.521Z,100
2023-01-17T04:27:11.516Z,100
2023-01-17T04:28:11.514Z,100
2023-01-17T04:29:11.521Z,100
2023-01-17T04:30:11.575Z,100
2023-01-17T04:31:11.648Z,100
2023-01-17T04:32:11.543Z,100
2023-01-17T04:33:11.591Z,100
2023-01-17T04:34:11.544Z,100
2023-01-17T04:35:11.509Z,100
2023-01-17T04:36:11.517Z,100
2023-01-17T04:37:11.553Z,100
2023-01-17T04:38:11.512Z,100
2023-01-17T04:39:11.515Z,100
2023-01-17T04:40:11.538Z,100
2023-01-17T04:41:11.615Z,100
2023-01-17T04:42:11.525Z,100
2023-01-17T04:43:11.590Z,100
2023-01-17T04:44:11.568Z,100
2023-01-17T04:45:11.515Z,100
2023-01-17T04:46:11.532Z,100
2023-01-17T04:47:11.574Z,100
2023-01-17T04:48:11.505Z,100
2023-01-17T04:49:11.561Z,100
2023-01-17T04:50:11.527Z,100
2023-01-17T04:51:11.775Z,100
2023-01-17T04:52:11.699Z,100
2023-01-17T04:53:11.563Z,100
2023-01-17T04:54:11.646Z,100
2023-01-17T04:55:11.683Z,100
2023-01-17T04:56:11.649Z,100
2023-01-17T04:57:11.721Z,100
2023-01-17T04:58:11.577Z,100
2023-01-17T04:59:11.672Z,100
2023-01-17T05:00:12.810Z,100
2023-01-17T05:01:13.151Z,100
2023-01-17T05:02:12.349Z,100
2023-01-17T05:03:12.319Z,100
2023-01-17T05:04:12.301Z,100
2023-01-17T05:05:12.587Z,100
2023-01-17T05:06:12.265Z,100
2023-01-17T05:07:11.508Z,100
2023-01-17T05:08:11.739Z,100
2023-01-17T05:09:12.175Z,100
2023-01-17T05:10:11.763Z,100
2023-01-17T05:11:11.541Z,100
2023-01-17T05:12:11.852Z,100
2023-01-17T05:13:11.533Z,100
2023-01-17T05:14:11.865Z,100
2023-01-17T05:15:11.507Z,100
2023-01-17T05:16:11.824Z,100
2023-01-17T05:17:11.537Z,100
2023-01-17T05:18:11.547Z,100
2023-01-17T05:19:11.521Z,100
2023-01-17T05:20:11.517Z,100
2023-01-17T05:21:11.535Z,100
2023-01-17T05:22:11.514Z,100
2023-01-17T05:23:11.556Z,100
2023-01-17T05:24:11.549Z,100
2023-01-17T05:25:11.574Z,100
2023-01-17T05:26:11.513Z,100
2023-01-17T05:27:11.523Z,100
2023-01-17T05:28:11.817Z,100
2023-01-17T05:29:11.508Z,100
2023-01-17T05:30:11.521Z,100
2023-01-17T05:31:11.565Z,100
2023-01-17T05:32:11.557Z,100
2023-01-17T05:33:11.509Z,100
2023-01-17T05:34:11.507Z,100
2023-01-17T05:35:11.526Z,100
2023-01-17T05:36:11.522Z,100
2023-01-17T05:37:11.505Z,100
2023-01-17T05:38:11.519Z,100
2023-01-17T05:39:11.506Z,100
2023-01-17T05:40:11.542Z,100
2023-01-17T05:41:11.510Z,100
2023-01-17T05:42:11.514Z,100
2023-01-17T05:43:11.514Z,100
2023-01-17T05:44:11.520Z,100
2023-01-17T05:45:11.513Z,100
2023-01-17T05:46:11.582Z,100
2023-01-17T05:47:11.505Z,100
2023-01-17T05:48:11.506Z,100
2023-01-17T05:49:11.527Z,100
2023-01-17T05:50:11.512Z,100
2023-01-17T05:51:11.507Z,100
2023-01-17T05:52:11.680Z,100
2023-01-17T05:53:11.614Z,100
2023-01-17T05:54:11.548Z,100
2023-01-17T05:55:11.521Z,100
2023-01-17T05:56:11.537Z,100
2023-01-17T05:57:11.509Z,100
2023-01-17T05:58:11.516Z,100
2023-01-17T05:59:14.803Z,100
2023-01-17T06:00:11.510Z,100
2023-01-17T06:01:11.556Z,100
2023-01-17T06:02:11.512Z,100
2023-01-17T06:03:11.514Z,100
2023-01-17T06:04:11.565Z,100
2023-01-17T06:05:11.519Z,100
2023-01-17T06:06:11.524Z,100
2023-01-17T06:07:11.500Z,100
2023-01-17T06:08:11.518Z,100
2023-01-17T06:09:11.503Z,100
2023-01-17T06:10:11.524Z,100
2023-01-17T06:11:11.550Z,100
2023-01-17T06:12:11.885Z,100
2023-01-17T06:13:12.334Z,100
2023-01-17T06:14:12.451Z,100
2023-01-17T06:15:10.937Z,100
2023-01-17T06:16:11.359Z,100
2023-01-17T06:17:11.486Z,100
2023-01-17T06:18:11.778Z,100
2023-01-17T06:19:11.674Z,100
2023-01-17T06:20:11.997Z,100
2023-01-17T06:21:12.232Z,100
2023-01-17T06:22:11.894Z,100
2023-01-17T06:23:11.517Z,100
2023-01-17T06:24:11.739Z,100
2023-01-17T06:25:11.507Z,100
2023-01-17T06:26:11.510Z,100
2023-01-17T06:27:11.512Z,100
2023-01-17T06:28:11.507Z,100
2023-01-17T06:29:11.512Z,100
2023-01-17T06:30:11.535Z,100
2023-01-17T06:31:11.548Z,100
2023-01-17T06:32:11.514Z,100
2023-01-17T06:33:11.517Z,100
2023-01-17T06:34:11.513Z,100
2023-01-17T06:35:11.527Z,100
2023-01-17T06:36:11.522Z,100
2023-01-17T06:37:11.511Z,100
2023-01-17T06:38:11.506Z,100
2023-01-17T06:39:14.095Z,100
2023-01-17T06:40:11.765Z,100
2023-01-17T06:41:11.517Z,100
2023-01-17T06:42:11.510Z,100
2023-01-17T06:43:11.517Z,100
2023-01-17T06:44:11.803Z,100
2023-01-17T06:45:11.521Z,100
2023-01-17T06:46:11.681Z,100
2023-01-17T06:47:11.628Z,100
2023-01-17T06:48:11.895Z,100
2023-01-17T06:49:11.629Z,100
2023-01-17T06:50:11.754Z,100
2023-01-17T06:51:11.566Z,100
2023-01-17T06:52:11.836Z,100
2023-01-17T06:53:11.586Z,100
2023-01-17T06:54:11.866Z,100
2023-01-17T06:55:11.504Z,100
2023-01-17T06:56:11.496Z,100
2023-01-17T06:57:11.504Z,100
2023-01-17T06:58:11.505Z,100
2023-01-17T06:59:11.519Z,100
2023-01-17T07:00:11.505Z,100
2023-01-17T07:01:11.675Z,100
2023-01-17T07:02:11.504Z,100
2023-01-17T07:03:11.505Z,100
2023-01-17T07:04:11.589Z,100
2023-01-17T07:05:11.501Z,100
2023-01-17T07:06:11.521Z,100
2023-01-17T07:07:11.514Z,100
2023-01-17T07:08:11.512Z,100
2023-01-17T07:09:11.691Z,100
2023-01-17T07:10:11.520Z,100
2023-01-17T07:11:11.602Z,100
2023-01-17T07:12:11.614Z,100
2023-01-17T07:13:11.611Z,100
2023-01-17T07:14:11.695Z,100
2023-01-17T07:15:11.794Z,100
2023-01-17T07:16:11.906Z,100
2023-01-17T07:17:11.860Z,100
2023-01-17T07:18:11.515Z,100
2023-01-17T07:19:11.513Z,100
2023-01-17T07:20:11.510Z,100
2023-01-17T07:21:11.735Z,100
2023-01-17T07:22:11.506Z,100
2023-01-17T07:23:11.606Z,100
2023-01-17T07:24:11.701Z,100
2023-01-17T07:25:11.574Z,100
2023-01-17T07:26:11.526Z,100
2023-01-17T07:27:11.554Z,100
2023-01-17T07:28:11.617Z,100
2023-01-17T07:29:11.706Z,100
2023-01-17T07:30:11.638Z,100
2023-01-17T07:31:11.848Z,100
2023-01-17T07:32:11.929Z,100
2023-01-17T07:33:11.786Z,100
2023-01-17T07:34:12.059Z,100
2023-01-17T07:35:11.944Z,100
2023-01-17T07:36:12.061Z,100
2023-01-17T07:37:13.657Z,100
2023-01-17T07:38:12.247Z,100
2023-01-17T07:39:11.522Z,100
2023-01-17T07:40:11.709Z,100
2023-01-17T07:41:13.136Z,100
2023-01-17T07:42:11.535Z,100
2023-01-17T07:43:11.498Z,100
2023-01-17T07:44:11.524Z,100
2023-01-17T07:45:11.518Z,100
2023-01-17T07:46:11.673Z,100
2023-01-17T07:47:11.607Z,100
2023-01-17T07:48:11.527Z,100
2023-01-17T07:49:11.665Z,100
2023-01-17T07:50:11.722Z,100
2023-01-17T07:51:11.933Z,100
2023-01-17T07:52:11.705Z,100
2023-01-17T07:53:11.766Z,100
2023-01-17T07:54:11.551Z,100
2023-01-17T07:55:11.540Z,100
2023-01-17T07:56:11.515Z,100
2023-01-17T07:57:11.513Z,100
2023-01-17T07:58:11.519Z,100
2023-01-17T07:59:11.512Z,100
2023-01-17T08:00:11.517Z,100
2023-01-17T08:01:11.565Z,100
2023-01-17T08:02:11.503Z,100
2023-01-17T08:03:11.502Z,100
2023-01-17T08:04:11.704Z,100
2023-01-17T08:05:11.510Z,100
2023-01-17T08:06:11.505Z,100
2023-01-17T08:07:11.510Z,100
2023-01-17T08:08:11.514Z,100
2023-01-17T08:09:11.508Z,100
2023-01-17T08:10:11.502Z,100
2023-01-17T08:11:11.521Z,100
2023-01-17T08:12:11.503Z,100
2023-01-17T08:13:11.513Z,100
2023-01-17T08:14:11.509Z,100
2023-01-17T08:15:11.522Z,100
2023-01-17T08:16:11.528Z,100
2023-01-17T08:17:11.525Z,100
2023-01-17T08:18:11.620Z,100
2023-01-17T08:19:11.514Z,100
2023-01-17T08:20:11.536Z,100
2023-01-17T08:21:11.508Z,100
2023-01-17T08:22:11.507Z,100
2023-01-17T08:23:11.500Z,100
2023-01-17T08:24:11.568Z,100
2023-01-17T08:25:11.518Z,100
2023-01-17T08:26:11.500Z,100
2023-01-17T08:27:11.501Z,100
2023-01-17T08:28:11.505Z,100
2023-01-17T08:29:11.547Z,100
2023-01-17T08:30:11.518Z,100
2023-01-17T08:31:11.540Z,100
2023-01-17T08:32:11.513Z,100
2023-01-17T08:33:11.515Z,100
2023-01-17T08:34:11.641Z,100
2023-01-17T08:35:11.874Z,100
2023-01-17T08:36:11.547Z,100
2023-01-17T08:37:11.517Z,100
2023-01-17T08:38:11.704Z,100
2023-01-17T08:39:11.536Z,100
2023-01-17T08:40:11.629Z,100
2023-01-17T08:41:11.548Z,100
2023-01-17T08:42:11.811Z,100
2023-01-17T08:43:11.523Z,100
2023-01-17T08:44:11.772Z,100
2023-01-17T08:45:11.560Z,100
2023-01-17T08:46:11.566Z,100
2023-01-17T08:47:11.519Z,100
2023-01-17T08:48:11.659Z,100
2023-01-17T08:49:11.532Z,100
2023-01-17T08:50:11.504Z,100
2023-01-17T08:51:11.511Z,100
2023-01-17T08:52:11.507Z,100
2023-01-17T08:53:11.519Z,100
2023-01-17T08:54:11.520Z,100
2023-01-17T08:55:11.501Z,100
2023-01-17T08:56:11.505Z,100
2023-01-17T08:57:11.528Z,100
2023-01-17T08:58:11.515Z,100
2023-01-17T08:59:11.520Z,100
2023-01-17T09:00:11.525Z,100
2023-01-17T09:01:11.613Z,100
2023-01-17T09:02:11.685Z,100
2023-01-17T09:03:11.515Z,100
2023-01-17T09:04:11.567Z,100
2023-01-17T09:05:11.511Z,100
2023-01-17T09:06:11.513Z,100
2023-01-17T09:07:11.523Z,100
2023-01-17T09:08:11.504Z,100
2023-01-17T09:09:11.531Z,100
2023-01-17T09:10:11.528Z,100
2023-01-17T09:11:11.521Z,100
2023-01-17T09:12:11.507Z,100
2023-01-17T09:13:11.524Z,100
2023-01-17T09:14:11.512Z,100
2023-01-17T09:15:11.521Z,100
2023-01-17T09:16:11.579Z,100
2023-01-17T09:17:13.121Z,100
2023-01-17T09:18:11.507Z,100
2023-01-17T09:19:11.523Z,100
2023-01-17T09:20:11.531Z,100
2023-01-17T09:21:11.515Z,100
2023-01-17T09:22:11.559Z,100
2023-01-17T09:23:11.511Z,100
2023-01-17T09:24:11.555Z,100
2023-01-17T09:25:11.506Z,100
2023-01-17T09:26:11.523Z,100
2023-01-17T09:27:11.513Z,100
2023-01-17T09:28:11.524Z,100
2023-01-17T09:29:11.507Z,100
2023-01-17T09:30:11.501Z,100
2023-01-17T09:31:11.563Z,100
2023-01-17T09:32:11.504Z,100
2023-01-17T09:33:11.509Z,100
2023-01-17T09:34:11.531Z,100
2023-01-17T09:35:11.511Z,100
2023-01-17T09:36:11.520Z,100
2023-01-17T09:37:11.507Z,100
2023-01-17T09:38:11.545Z,100
2023-01-17T09:39:11.597Z,100
2023-01-17T09:40:11.640Z,100
2023-01-17T09:41:11.515Z,100
2023-01-17T09:42:11.592Z,100
2023-01-17T09:43:11.584Z,100
2023-01-17T09:44:11.513Z,100
2023-01-17T09:45:11.506Z,100
2023-01-17T09:46:11.541Z,100
2023-01-17T09:47:11.523Z,100
2023-01-17T09:48:12.676Z,100
2023-01-17T09:49:12.131Z,100
2023-01-17T09:50:11.174Z,100
2023-01-17T09:51:11.304Z,100
2023-01-17T09:52:11.633Z,100
2023-01-17T09:53:11.868Z,100
2023-01-17T09:54:11.215Z,100
2023-01-17T09:55:11.546Z,100
2023-01-17T09:56:11.797Z,100
2023-01-17T09:57:11.594Z,100
2023-01-17T09:58:11.714Z,100
2023-01-17T09:59:11.516Z,100
2023-01-17T10:00:11.510Z,100
2023-01-17T10:01:11.592Z,100
2023-01-17T10:02:11.659Z,100
2023-01-17T10:03:11.579Z,100
2023-01-17T10:04:11.605Z,100
2023-01-17T10:05:11.535Z,100
2023-01-17T10:06:11.512Z,100
2023-01-17T10:07:11.503Z,100
2023-01-17T10:08:11.504Z,100
2023-01-17T10:09:11.608Z,100
2023-01-17T10:10:11.628Z,100
2023-01-17T10:11:11.703Z,100
2023-01-17T10:12:11.725Z,100
2023-01-17T10:13:11.920Z,100
2023-01-17T10:14:11.787Z,100
2023-01-17T10:15:11.784Z,100
2023-01-17T10:16:11.714Z,100
2023-01-17T10:17:11.511Z,100
2023-01-17T10:18:29.044Z,100
2023-01-17T10:19:11.691Z,100
2023-01-17T10:20:11.525Z,100
2023-01-17T10:21:11.903Z,100
2023-01-17T10:22:11.538Z,100
2023-01-17T10:23:11.803Z,100
2023-01-17T10:24:11.585Z,100
2023-01-17T10:25:11.520Z,100
2023-01-17T10:26:11.691Z,100
2023-01-17T10:27:11.887Z,100
2023-01-17T10:28:11.742Z,100
2023-01-17T10:29:11.581Z,100
2023-01-17T10:30:11.738Z,100
2023-01-17T10:31:11.791Z,100
2023-01-17T10:32:11.820Z,100
2023-01-17T10:33:11.735Z,100
2023-01-17T10:34:11.551Z,100
2023-01-17T10:35:11.580Z,100
2023-01-17T10:36:11.522Z,100
2023-01-17T10:37:11.516Z,100
2023-01-17T10:38:11.524Z,100
2023-01-17T10:39:11.535Z,100
2023-01-17T10:40:11.530Z,100
2023-01-17T10:41:11.507Z,100
2023-01-17T10:42:11.708Z,100
2023-01-17T10:43:11.516Z,100
2023-01-17T10:44:11.609Z,100
2023-01-17T10:45:11.525Z,100
2023-01-17T10:46:11.623Z,100
2023-01-17T10:47:11.535Z,100
2023-01-17T10:48:11.587Z,100
2023-01-17T10:49:11.693Z,100
2023-01-17T10:50:11.799Z,100
2023-01-17T10:51:11.508Z,100
2023-01-17T10:52:11.961Z,100
2023-01-17T10:53:11.517Z,100
2023-01-17T10:54:11.507Z,100
2023-01-17T10:55:11.735Z,100
2023-01-17T10:56:11.812Z,100
2023-01-17T10:57:11.503Z,100
2023-01-17T10:58:11.777Z,100
2023-01-17T10:59:11.579Z,100
2023-01-17T11:00:11.686Z,100
2023-01-17T11:01:11.664Z,100
2023-01-17T11:02:11.667Z,100
2023-01-17T11:03:11.671Z,100
2023-01-17T11:04:11.790Z,100
2023-01-17T11:05:11.704Z,100
2023-01-17T11:06:11.920Z,100
2023-01-17T11:07:11.784Z,100
2023-01-17T11:08:12.036Z,100
2023-01-17T11:09:11.597Z,100
2023-01-17T11:10:11.641Z,100
2023-01-17T11:11:11.503Z,100
2023-01-17T11:12:11.760Z,100
2023-01-17T11:13:11.506Z,100
2023-01-17T11:14:11.778Z,100
2023-01-17T11:15:11.597Z,100
2023-01-17T11:16:11.560Z,100
2023-01-17T11:17:11.500Z,100
2023-01-17T11:18:11.535Z,100
2023-01-17T11:19:11.529Z,100
2023-01-17T11:20:11.507Z,100
2023-01-17T11:21:11.528Z,100
2023-01-17T11:22:11.562Z,100
2023-01-17T11:23:11.518Z,100
2023-01-17T11:24:11.580Z,100
2023-01-17T11:25:11.505Z,100
2023-01-17T11:26:11.505Z,100
2023-01-17T11:27:11.504Z,100
2023-01-17T11:28:11.509Z,100
2023-01-17T11:29:11.527Z,100
2023-01-17T11:30:11.516Z,100
2023-01-17T11:31:11.553Z,100
2023-01-17T11:32:11.506Z,100
2023-01-17T11:33:11.506Z,100
2023-01-17T11:34:11.521Z,100
2023-01-17T11:35:11.511Z,100
2023-01-17T11:36:11.519Z,100
2023-01-17T11:37:11.605Z,100
2023-01-17T11:38:11.512Z,100
2023-01-17T11:39:11.521Z,100
2023-01-17T11:40:11.513Z,100
2023-01-17T11:41:11.501Z,100
2023-01-17T11:42:11.507Z,100
2023-01-17T11:43:11.530Z,100
2023-01-17T11:44:11.509Z,100
2023-01-17T11:45:11.511Z,100
2023-01-17T11:46:11.551Z,100
2023-01-17T11:47:11.512Z,100
2023-01-17T11:48:11.516Z,100
2023-01-17T11:49:11.597Z,100
2023-01-17T11:50:11.514Z,100
2023-01-17T11:51:11.509Z,100
2023-01-17T11:52:11.608Z,100
2023-01-17T11:53:11.507Z,100
2023-01-17T11:54:11.516Z,100
2023-01-17T11:55:11.510Z,100
2023-01-17T11:56:11.505Z,100
2023-01-17T11:57:11.533Z,100
2023-01-17T11:58:11.532Z,100
2023-01-17T11:59:11.510Z,100
2023-01-17T12:00:11.513Z,100
2023-01-17T12:01:11.564Z,100
2023-01-17T12:02:11.519Z,100
2023-01-17T12:03:11.519Z,100
2023-01-17T12:04:11.526Z,100
2023-01-17T12:05:11.553Z,100
2023-01-17T12:06:11.646Z,100
2023-01-17T12:07:11.855Z,100
2023-01-17T12:08:11.615Z,100
2023-01-17T12:09:11.523Z,100
2023-01-17T12:10:11.690Z,100
2023-01-17T12:11:11.505Z,100
2023-01-17T12:12:11.712Z,100
2023-01-17T12:13:11.539Z,100
2023-01-17T12:14:11.786Z,100
2023-01-17T12:15:11.573Z,100
2023-01-17T12:16:11.834Z,100
2023-01-17T12:17:11.516Z,100
2023-01-17T12:18:11.612Z,100
2023-01-17T12:19:11.517Z,100
2023-01-17T12:20:11.526Z,100
2023-01-17T12:21:11.510Z,100
2023-01-17T12:22:11.508Z,100
2023-01-17T12:23:11.518Z,100
2023-01-17T12:24:11.517Z,100
2023-01-17T12:25:11.523Z,100
2023-01-17T12:26:11.511Z,100
2023-01-17T12:27:11.509Z,100
2023-01-17T12:28:11.506Z,100
2023-01-17T12:29:11.511Z,100
2023-01-17T12:30:11.524Z,100
2023-01-17T12:31:11.619Z,100
2023-01-17T12:32:11.506Z,100
2023-01-17T12:33:11.742Z,100
2023-01-17T12:34:11.536Z,100
2023-01-17T12:35:11.676Z,100
2023-01-17T12:36:11.565Z,100
2023-01-17T12:37:11.498Z,100
2023-01-17T12:38:23.834Z,100
2023-01-17T12:39:11.847Z,100
2023-01-17T12:40:11.670Z,100
2023-01-17T12:41:11.512Z,100
2023-01-17T12:42:11.812Z,100
2023-01-17T12:43:11.503Z,100
2023-01-17T12:44:11.525Z,100
2023-01-17T12:45:11.529Z,100
2023-01-17T12:46:11.537Z,100
2023-01-17T12:47:11.506Z,100
2023-01-17T12:48:11.585Z,100
2023-01-17T12:49:11.689Z,100
2023-01-17T12:50:11.515Z,100
2023-01-17T12:51:11.509Z,100
2023-01-17T12:52:11.498Z,100
2023-01-17T12:53:11.504Z,100
2023-01-17T12:54:11.687Z,100
2023-01-17T12:55:11.505Z,100
2023-01-17T12:56:11.505Z,100
2023-01-17T12:57:14.515Z,100
2023-01-17T12:58:11.511Z,100
2023-01-17T12:59:11.508Z,100
2023-01-17T13:00:11.504Z,100
2023-01-17T13:01:11.607Z,100
2023-01-17T13:02:11.529Z,100
2023-01-17T13:03:11.516Z,100
2023-01-17T13:04:11.504Z,100
2023-01-17T13:05:11.511Z,100
2023-01-17T13:06:11.532Z,100
2023-01-17T13:07:11.506Z,100
2023-01-17T13:08:11.498Z,100
2023-01-17T13:09:11.506Z,100
2023-01-17T13:10:11.593Z,100
2023-01-17T13:11:11.499Z,100
2023-01-17T13:12:11.505Z,100
2023-01-17T13:13:11.524Z,100
2023-01-17T13:14:11.509Z,100
2023-01-17T13:15:11.501Z,100
2023-01-17T13:16:11.543Z,100
2023-01-17T13:17:11.509Z,100
2023-01-17T13:18:11.509Z,100
2023-01-17T13:19:11.514Z,100
2023-01-17T13:20:11.544Z,100
2023-01-17T13:21:11.524Z,100
2023-01-17T13:22:11.522Z,100
2023-01-17T13:23:11.497Z,100
2023-01-17T13:24:11.537Z,99.79
2023-01-17T13:25:11.515Z,99.55
2023-01-17T13:26:11.500Z,98.51
2023-01-17T13:27:11.511Z,97.02
2023-01-17T13:28:11.512Z,96.18
2023-01-17T13:29:11.609Z,94.96
2023-01-17T13:30:11.508Z,95.1
2023-01-17T13:31:11.550Z,95.68
2023-01-17T13:32:11.504Z,96.38
2023-01-17T13:33:11.515Z,96.83
2023-01-17T13:34:11.513Z,97.03
2023-01-17T13:35:11.494Z,96.37
2023-01-17T13:36:11.511Z,96.85
2023-01-17T13:37:11.515Z,96.73
2023-01-17T13:38:11.549Z,95.54
2023-01-17T13:39:11.518Z,93.17
2023-01-17T13:40:11.938Z,90.27
2023-01-17T13:41:11.513Z,89.5
2023-01-17T13:42:11.505Z,90.81
2023-01-17T13:43:11.520Z,92.02
2023-01-17T13:44:11.683Z,92.85